KDBN/DBN METAR and TAF weather

Enter ICAO airport designator
Station Type Date Time Source
KDBN METAR 2020/01/20 12:55 UTC NOAA

KDBN 201255Z AUTO 34004KT 10SM CLR M01/M06 A3035 RMK AO2


Station Type Date Time Source
KDBN Decoded METAR 2020/01/20 12:55 UTC NOAA

Dublin, W H 'Bud' Barron Airport, GA, United States (KDBN) 32-33-52N 082-59-06W
Jan 20, 2020 - 07:55 AM EST / 2020.01.20 1255 UTC
Wind: from the NNW (340 degrees) at 5 MPH (4 KT):0
Visibility: 10 mile(s):0
Sky conditions: clear
Temperature: 30 F (-1 C)
Windchill: 24 F (-4 C):1
Dew Point: 21 F (-6 C)
Relative Humidity: 68%
Pressure (altimeter): 30.35 in. Hg (1027 hPa)
ob: KDBN 201255Z AUTO 34004KT 10SM CLR M01/M06 A3035 RMK AO2
cycle: 13

Station Type Date Time Source
KDBN TAF UTC NOAA

Error!

Example: see airport list